createdAt,value
2023-09-06T00:01:18.805Z,101845.38
2023-09-06T00:03:45.556Z,101841.44
2023-09-06T00:06:12.241Z,101845.72
2023-09-06T00:08:38.759Z,101845.28
2023-09-06T00:11:06.694Z,101852.69
2023-09-06T00:13:35.003Z,101845.56
2023-09-06T00:16:03.329Z,101837.25
2023-09-06T00:18:30.359Z,101843.16
2023-09-06T00:20:58.923Z,101846.28
2023-09-06T00:23:26.548Z,101848.22
2023-09-06T00:25:55.025Z,101845.81
2023-09-06T00:28:21.746Z,101843.78
2023-09-06T00:30:48.471Z,101849.19
2023-09-06T00:33:15.078Z,101845.19
2023-09-06T00:35:41.850Z,101843.22
2023-09-06T00:38:09.431Z,101843.16
2023-09-06T00:40:37.626Z,101838.78
2023-09-06T00:43:09.010Z,101837.25
2023-09-06T00:45:40.809Z,101840.81
2023-09-06T00:48:09.089Z,101838.84
2023-09-06T00:50:37.174Z,101836.16
2023-09-06T00:53:08.501Z,101829.06
2023-09-06T00:55:37.542Z,101832.50
2023-09-06T00:58:07.306Z,101834.81
2023-09-06T01:00:34.500Z,101835.19
2023-09-06T01:03:01.475Z,101834.75
2023-09-06T01:05:32.420Z,101835.13
2023-09-06T01:08:04.308Z,101840.22
2023-09-06T01:10:30.848Z,101841.81
2023-09-06T01:12:57.433Z,101831.66
2023-09-06T01:15:24.085Z,101842.28
2023-09-06T01:17:53.461Z,101837.44
2023-09-06T01:20:30.562Z,101843.69
2023-09-06T01:23:26.325Z,101853.13
2023-09-06T01:25:53.741Z,101854.63
2023-09-06T01:28:20.553Z,101859.72
2023-09-06T01:30:48.048Z,101857.28
2023-09-06T01:33:17.393Z,101862.31
2023-09-06T01:35:43.975Z,101856.81
2023-09-06T01:38:10.486Z,101852.81
2023-09-06T01:40:37.124Z,101855.09
2023-09-06T01:43:04.160Z,101841.69
2023-09-06T01:45:30.756Z,101855.34
2023-09-06T01:47:57.332Z,101851.34
2023-09-06T01:50:23.905Z,101860.66
2023-09-06T01:52:50.523Z,101852.75
2023-09-06T01:55:17.108Z,101852.28
2023-09-06T01:57:43.737Z,101846.47
2023-09-06T02:00:28.659Z,101844.25
2023-09-06T02:02:56.424Z,101855.69
2023-09-06T02:05:23.526Z,101844.28
2023-09-06T02:07:50.725Z,101841.78
2023-09-06T02:10:17.955Z,101851.22
2023-09-06T02:12:45.592Z,101846.13
2023-09-06T02:15:15.160Z,101853.16
2023-09-06T02:17:46.118Z,101856.22
2023-09-06T02:20:18.661Z,101851.50
2023-09-06T02:22:47.990Z,101861.22
2023-09-06T02:25:16.458Z,101854.53
2023-09-06T02:27:43.140Z,101856.97
2023-09-06T02:30:10.120Z,101857.88
2023-09-06T02:32:36.912Z,101859.75
2023-09-06T02:35:04.094Z,101869.16
2023-09-06T02:37:30.653Z,101865.16
2023-09-06T02:39:57.197Z,101868.50
2023-09-06T02:42:24.131Z,101866.47
2023-09-06T02:44:52.038Z,101874.69
2023-09-06T02:47:18.859Z,101874.84
2023-09-06T02:49:47.068Z,101878.59
2023-09-06T02:52:29.363Z,101875.72
2023-09-06T02:54:59.368Z,101874.28
2023-09-06T02:57:31.241Z,101874.59
2023-09-06T02:59:58.147Z,101875.00
2023-09-06T03:02:24.786Z,101876.31
2023-09-06T03:05:05.205Z,101874.72
2023-09-06T03:07:35.381Z,101883.03
2023-09-06T03:10:03.006Z,101881.50
2023-09-06T03:12:30.351Z,101881.13
2023-09-06T03:14:56.886Z,101876.97
2023-09-06T03:17:24.000Z,101882.41
2023-09-06T03:20:00.716Z,101874.28
2023-09-06T03:22:29.432Z,101878.13
2023-09-06T03:24:56.537Z,101876.59
2023-09-06T03:27:23.184Z,101875.44
2023-09-06T03:29:52.087Z,101879.34
2023-09-06T03:32:19.305Z,101885.16
2023-09-06T03:34:46.582Z,101882.78
2023-09-06T03:37:19.471Z,101878.47
2023-09-06T03:39:47.566Z,101881.66
2023-09-06T03:42:16.300Z,101889.59
2023-09-06T03:44:43.997Z,101886.84
2023-09-06T03:47:20.948Z,101888.91
2023-09-06T03:49:47.853Z,101888.19
2023-09-06T03:52:17.473Z,101890.53
2023-09-06T03:54:44.069Z,101888.06
2023-09-06T03:57:14.289Z,101885.28
2023-09-06T03:59:42.005Z,101888.53
2023-09-06T04:02:14.395Z,101889.31
2023-09-06T04:04:41.059Z,101886.88
2023-09-06T04:07:08.984Z,101893.28
2023-09-06T04:09:38.561Z,101900.41
2023-09-06T04:12:08.698Z,101903.97
2023-09-06T04:14:40.020Z,101891.88
2023-09-06T04:17:08.395Z,101901.72
2023-09-06T04:19:37.852Z,101904.09
2023-09-06T04:22:04.573Z,101901.63
2023-09-06T04:24:31.082Z,101905.94
2023-09-06T04:26:57.568Z,101900.53
2023-09-06T04:29:25.508Z,101902.91
2023-09-06T04:31:52.102Z,101902.41
2023-09-06T04:34:18.652Z,101899.06
2023-09-06T04:36:45.184Z,101902.56
2023-09-06T04:39:11.834Z,101909.19
2023-09-06T04:41:38.321Z,101908.03
2023-09-06T04:44:05.306Z,101909.97
2023-09-06T04:46:31.916Z,101908.75
2023-09-06T04:48:58.632Z,101914.97
2023-09-06T04:51:25.186Z,101908.22
2023-09-06T04:53:51.751Z,101906.72
2023-09-06T04:56:18.284Z,101910.25
2023-09-06T04:58:46.092Z,101916.16
2023-09-06T05:01:12.694Z,101917.75
2023-09-06T05:03:39.474Z,101918.56
2023-09-06T05:06:06.266Z,101918.63
2023-09-06T05:08:33.888Z,101922.59
2023-09-06T05:11:00.495Z,101918.31
2023-09-06T05:13:29.833Z,101917.16
2023-09-06T05:16:01.933Z,101920.75
2023-09-06T05:18:28.766Z,101920.38
2023-09-06T05:20:57.146Z,101926.22
2023-09-06T05:23:23.750Z,101923.53
2023-09-06T05:25:52.199Z,101925.94
2023-09-06T05:28:20.045Z,101934.16
2023-09-06T05:30:47.832Z,101931.41
2023-09-06T05:33:16.117Z,101932.22
2023-09-06T05:35:43.966Z,101933.03
2023-09-06T05:38:10.656Z,101946.78
2023-09-06T05:40:37.451Z,101946.41
2023-09-06T05:43:05.171Z,101943.28
2023-09-06T05:45:31.899Z,101941.78
2023-09-06T05:47:58.591Z,101939.91
2023-09-06T05:50:25.276Z,101948.59
2023-09-06T05:52:51.779Z,101947.91
2023-09-06T05:55:18.520Z,101956.47
2023-09-06T05:57:45.253Z,101950.97
2023-09-06T06:00:16.860Z,101953.81
2023-09-06T06:02:45.747Z,101961.78
2023-09-06T06:05:13.310Z,101960.22
2023-09-06T06:07:40.724Z,101968.16
2023-09-06T06:10:12.096Z,101960.72
2023-09-06T06:12:40.242Z,101966.28
2023-09-06T06:15:09.578Z,101967.94
2023-09-06T06:17:37.155Z,101968.03
2023-09-06T06:20:12.320Z,101964.94
2023-09-06T06:22:40.928Z,101968.94
2023-09-06T06:25:11.936Z,101965.81
2023-09-06T06:27:40.072Z,101972.56
2023-09-06T06:30:12.284Z,101967.09
2023-09-06T06:32:39.508Z,101971.09
2023-09-06T06:35:07.692Z,101979.00
2023-09-06T06:37:35.201Z,101975.13
2023-09-06T06:40:01.945Z,101972.44
2023-09-06T06:42:28.673Z,101974.44
2023-09-06T06:44:55.649Z,101984.00
2023-09-06T06:47:22.955Z,101978.91
2023-09-06T06:49:53.374Z,101977.41
2023-09-06T06:52:20.044Z,101979.03
2023-09-06T06:54:47.830Z,101981.03
2023-09-06T06:57:14.369Z,101979.91
2023-09-06T06:59:41.072Z,101981.16
2023-09-06T07:02:07.630Z,101988.66
2023-09-06T07:04:34.230Z,101972.97
2023-09-06T07:07:00.810Z,101981.28
2023-09-06T07:09:27.837Z,101984.09
2023-09-06T07:11:54.499Z,101975.50
2023-09-06T07:14:22.048Z,101983.81
2023-09-06T07:16:48.937Z,101981.13
2023-09-06T07:19:15.857Z,101982.34
2023-09-06T07:21:44.097Z,101988.28
2023-09-06T07:24:11.318Z,101990.69
2023-09-06T07:26:38.187Z,101995.09
2023-09-06T07:29:04.834Z,101991.19
2023-09-06T07:31:31.504Z,101991.59
2023-09-06T07:33:59.350Z,101990.84
2023-09-06T07:36:25.951Z,101993.66
2023-09-06T07:38:56.455Z,101992.88
2023-09-06T07:41:23.355Z,101994.94
2023-09-06T07:43:50.285Z,101998.09
2023-09-06T07:46:16.853Z,101996.13
2023-09-06T07:48:44.247Z,101984.69
2023-09-06T07:51:12.150Z,101995.78
2023-09-06T07:56:07.493Z,101989.06
2023-09-06T07:58:34.590Z,101996.59
2023-09-06T08:03:31.353Z,102000.91
2023-09-06T08:05:58.415Z,102001.28
2023-09-06T08:08:25.087Z,102003.66
2023-09-06T08:10:51.634Z,101998.09
2023-09-06T08:13:18.171Z,102004.78
2023-09-06T08:15:45.341Z,102001.97
2023-09-06T08:18:12.071Z,102006.69
2023-09-06T08:20:38.770Z,102005.44
2023-09-06T08:23:05.418Z,102008.19
2023-09-06T08:25:35.083Z,102010.84
2023-09-06T08:28:01.707Z,102018.63
2023-09-06T08:30:28.620Z,102014.25
2023-09-06T08:32:56.453Z,102015.41
2023-09-06T08:35:24.463Z,102018.50
2023-09-06T08:37:51.671Z,102023.97
2023-09-06T08:40:19.814Z,102018.72
2023-09-06T08:42:46.546Z,102019.78
2023-09-06T08:45:13.097Z,102024.44
2023-09-06T08:47:40.986Z,102017.25
2023-09-06T08:50:11.592Z,102020.72
2023-09-06T08:52:44.778Z,102028.50
2023-09-06T08:55:12.512Z,102026.75
2023-09-06T08:57:40.653Z,102027.41
2023-09-06T09:00:11.234Z,102037.34
2023-09-06T09:02:43.647Z,102031.69
2023-09-06T09:05:19.657Z,102032.44
2023-09-06T09:07:51.013Z,102018.81
2023-09-06T09:10:17.879Z,102019.88
2023-09-06T09:12:44.596Z,102020.56
2023-09-06T09:15:22.570Z,102010.63
2023-09-06T09:18:00.124Z,102016.19
2023-09-06T09:20:28.655Z,102017.97
2023-09-06T09:23:02.340Z,102018.72
2023-09-06T09:25:29.235Z,102019.84
2023-09-06T09:27:57.916Z,102015.81
2023-09-06T09:30:25.553Z,102012.22
2023-09-06T09:33:03.055Z,102013.34
2023-09-06T09:35:32.571Z,102015.72
2023-09-06T09:38:01.143Z,102018.06
2023-09-06T09:40:51.687Z,102019.22
2023-09-06T09:43:20.539Z,102026.47
2023-09-06T09:45:48.337Z,102018.19
2023-09-06T09:48:17.103Z,102026.47
2023-09-06T09:50:45.225Z,102028.47
2023-09-06T09:55:49.378Z,102023.75
2023-09-06T09:58:17.180Z,102010.63
2023-09-06T10:00:44.498Z,102009.09
2023-09-06T10:03:11.782Z,102016.34
2023-09-06T10:05:39.324Z,102012.72
2023-09-06T10:08:09.048Z,102012.38
2023-09-06T10:10:38.665Z,102009.22
2023-09-06T10:13:08.931Z,102008.50
2023-09-06T10:15:37.041Z,102010.91
2023-09-06T10:18:05.802Z,102010.50
2023-09-06T10:20:35.883Z,102013.69
2023-09-06T10:23:02.597Z,102005.72
2023-09-06T10:25:29.515Z,102008.13
2023-09-06T10:27:57.355Z,101996.16
2023-09-06T10:30:30.336Z,102002.09
2023-09-06T10:32:57.100Z,102000.50
2023-09-06T10:35:31.328Z,101995.81
2023-09-06T10:38:17.084Z,101994.97
2023-09-06T10:40:52.544Z,101989.34
2023-09-06T10:43:30.326Z,101992.78
2023-09-06T10:46:06.448Z,101993.47
2023-09-06T10:48:33.626Z,101995.47
2023-09-06T10:51:07.756Z,101990.34
2023-09-06T10:53:37.991Z,101991.97
2023-09-06T10:56:06.462Z,101984.41
2023-09-06T10:58:38.044Z,101980.72
2023-09-06T11:01:19.941Z,101979.47
2023-09-06T11:03:52.387Z,101979.84
2023-09-06T11:06:20.332Z,101980.97
2023-09-06T11:08:48.346Z,101982.88
2023-09-06T11:11:15.510Z,101982.06
2023-09-06T11:13:45.977Z,101989.91
2023-09-06T11:16:17.245Z,101975.53
2023-09-06T11:18:48.336Z,101976.59
2023-09-06T11:21:21.841Z,101974.47
2023-09-06T11:23:53.762Z,101979.66
2023-09-06T11:26:20.760Z,101971.22
2023-09-06T11:28:51.748Z,101979.06
2023-09-06T11:31:26.924Z,101969.88
2023-09-06T11:34:04.936Z,101970.25
2023-09-06T11:36:33.481Z,101967.03
2023-09-06T11:39:33.822Z,101964.97
2023-09-06T11:42:02.424Z,101963.75
2023-09-06T11:44:29.258Z,101965.63
2023-09-06T11:46:55.868Z,101958.84
2023-09-06T11:49:26.280Z,101965.94
2023-09-06T11:51:55.239Z,101964.59
2023-09-06T11:54:27.991Z,101962.94
2023-09-06T11:56:55.278Z,101969.22
2023-09-06T11:59:23.490Z,101967.59
2023-09-06T12:01:58.247Z,101960.53
2023-09-06T12:04:27.819Z,101966.09
2023-09-06T12:06:56.666Z,101965.59
2023-09-06T12:09:24.887Z,101962.31
2023-09-06T12:11:52.469Z,101964.56
2023-09-06T12:14:19.073Z,101952.53
2023-09-06T12:16:45.964Z,101953.66
2023-09-06T12:19:13.666Z,101954.88
2023-09-06T12:21:40.378Z,101960.28
2023-09-06T12:24:07.022Z,101954.22
2023-09-06T12:26:34.586Z,101954.63
2023-09-06T12:29:03.836Z,101948.38
2023-09-06T12:31:31.799Z,101941.00
2023-09-06T12:33:58.496Z,101945.69
2023-09-06T12:36:25.716Z,101952.06
2023-09-06T12:38:53.355Z,101936.94
2023-09-06T12:41:20.076Z,101938.50
2023-09-06T12:43:47.504Z,101935.72
2023-09-06T12:46:14.436Z,101934.38
2023-09-06T12:48:43.729Z,101932.72
2023-09-06T12:51:11.148Z,101936.19
2023-09-06T12:53:37.819Z,101924.09
2023-09-06T12:56:04.692Z,101928.72
2023-09-06T12:58:31.825Z,101922.38
2023-09-06T13:00:59.061Z,101917.84
2023-09-06T13:03:26.068Z,101917.06
2023-09-06T13:05:53.005Z,101906.78
2023-09-06T13:08:20.909Z,101909.41
2023-09-06T13:10:48.136Z,101915.66
2023-09-06T13:13:14.750Z,101911.13
2023-09-06T13:15:41.365Z,101916.56
2023-09-06T13:18:08.678Z,101919.69
2023-09-06T13:20:35.498Z,101917.50
2023-09-06T13:23:02.353Z,101915.91
2023-09-06T13:25:29.045Z,101915.44
2023-09-06T13:27:55.744Z,101916.34
2023-09-06T13:30:22.416Z,101914.25
2023-09-06T13:32:49.149Z,101927.75
2023-09-06T13:35:15.819Z,101925.69
2023-09-06T13:37:42.364Z,101918.91
2023-09-06T13:40:09.806Z,101926.19
2023-09-06T13:42:36.572Z,101925.63
2023-09-06T13:45:03.877Z,101920.84
2023-09-06T13:47:30.460Z,101928.31
2023-09-06T13:49:58.688Z,101917.06
2023-09-06T13:52:25.292Z,101920.19
2023-09-06T13:54:51.944Z,101915.81
2023-09-06T13:57:18.459Z,101918.72
2023-09-06T13:59:44.973Z,101918.38
2023-09-06T14:02:11.631Z,101909.00
2023-09-06T14:04:38.739Z,101915.13
2023-09-06T14:07:05.350Z,101901.63
2023-09-06T14:09:32.051Z,101903.28
2023-09-06T14:11:58.731Z,101904.72
2023-09-06T14:14:25.302Z,101897.78
2023-09-06T14:16:52.421Z,101911.00
2023-09-06T14:19:19.088Z,101905.00
2023-09-06T14:21:48.282Z,101904.19
2023-09-06T14:24:18.582Z,101901.97
2023-09-06T14:26:45.211Z,101902.84
2023-09-06T14:29:13.474Z,101905.66
2023-09-06T14:31:40.682Z,101909.75
2023-09-06T14:34:07.383Z,101899.03
2023-09-06T14:36:34.018Z,101907.63
2023-09-06T14:39:02.460Z,101902.94
2023-09-06T14:41:30.569Z,101901.72
2023-09-06T14:43:58.616Z,101893.34
2023-09-06T14:46:25.566Z,101902.03
2023-09-06T14:48:53.239Z,101899.50
2023-09-06T14:51:20.186Z,101894.25
2023-09-06T14:53:46.952Z,101880.41
2023-09-06T14:56:16.161Z,101881.53
2023-09-06T14:58:43.323Z,101886.34
2023-09-06T15:01:09.986Z,101886.97
2023-09-06T15:03:36.834Z,101882.47
2023-09-06T15:06:07.619Z,101887.38
2023-09-06T15:08:34.302Z,101890.25
2023-09-06T15:11:01.082Z,101890.59
2023-09-06T15:13:27.955Z,101896.16
2023-09-06T15:15:55.131Z,101897.50
2023-09-06T15:18:21.998Z,101889.94
2023-09-06T15:20:49.340Z,101891.94
2023-09-06T15:23:16.262Z,101891.69
2023-09-06T15:25:45.243Z,101889.31
2023-09-06T15:28:12.088Z,101889.31
2023-09-06T15:30:38.836Z,101894.56
2023-09-06T15:33:05.848Z,101893.34
2023-09-06T15:35:32.599Z,101898.03
2023-09-06T15:38:12.735Z,101889.84
2023-09-06T15:40:39.764Z,101888.06
2023-09-06T15:43:06.745Z,101885.72
2023-09-06T15:45:33.851Z,101888.56
2023-09-06T15:48:00.927Z,101890.25
2023-09-06T15:50:29.637Z,101879.53
2023-09-06T15:52:56.860Z,101884.66
2023-09-06T15:55:23.941Z,101885.91
2023-09-06T15:57:51.178Z,101877.88
2023-09-06T16:00:30.939Z,101873.19
2023-09-06T16:02:59.590Z,101879.53
2023-09-06T16:05:26.622Z,101867.59
2023-09-06T16:07:54.543Z,101876.34
2023-09-06T16:10:21.324Z,101874.38
2023-09-06T16:12:49.767Z,101877.97
2023-09-06T16:15:18.220Z,101877.16
2023-09-06T16:17:46.310Z,101882.47
2023-09-06T16:20:13.542Z,101881.75
2023-09-06T16:22:40.212Z,101880.66
2023-09-06T16:25:09.198Z,101873.94
2023-09-06T16:27:36.026Z,101873.50
2023-09-06T16:30:06.800Z,101868.03
2023-09-06T16:32:33.832Z,101871.22
2023-09-06T16:35:00.971Z,101868.88
2023-09-06T16:37:27.701Z,101866.53
2023-09-06T16:39:54.328Z,101867.31
2023-09-06T16:42:22.380Z,101867.78
2023-09-06T16:44:49.015Z,101872.72
2023-09-06T16:47:15.603Z,101874.28
2023-09-06T16:49:48.285Z,101872.13
2023-09-06T16:52:15.471Z,101870.72
2023-09-06T16:54:42.157Z,101870.13
2023-09-06T16:57:08.808Z,101871.09
2023-09-06T16:59:35.366Z,101871.59
2023-09-06T17:02:01.992Z,101869.25
2023-09-06T17:04:28.589Z,101867.31
2023-09-06T17:06:55.210Z,101871.34
2023-09-06T17:09:21.802Z,101873.44
2023-09-06T17:11:48.370Z,101875.09
2023-09-06T17:14:15.059Z,101875.91
2023-09-06T17:16:42.268Z,101869.56
2023-09-06T17:19:11.046Z,101880.34
2023-09-06T17:21:41.124Z,101876.06
2023-09-06T17:24:09.832Z,101870.69
2023-09-06T17:26:42.727Z,101873.09
2023-09-06T17:29:15.892Z,101872.84
2023-09-06T17:31:48.954Z,101876.41
2023-09-06T17:34:15.674Z,101872.91
2023-09-06T17:36:42.647Z,101869.44
2023-09-06T17:39:10.760Z,101870.66
2023-09-06T17:41:39.024Z,101875.94
2023-09-06T17:44:07.469Z,101871.31
2023-09-06T17:46:35.109Z,101874.25
2023-09-06T17:49:03.008Z,101871.47
2023-09-06T17:51:31.680Z,101869.41
2023-09-06T17:54:00.344Z,101865.03
2023-09-06T17:56:28.064Z,101864.34
2023-09-06T17:58:55.303Z,101865.34
2023-09-06T18:01:24.121Z,101867.50
2023-09-06T18:03:58.725Z,101866.09
2023-09-06T18:06:27.119Z,101866.13
2023-09-06T18:08:59.329Z,101871.28
2023-09-06T18:11:26.360Z,101861.47
2023-09-06T18:13:53.550Z,101870.19
2023-09-06T18:16:21.231Z,101870.44
2023-09-06T18:18:49.492Z,101868.31
2023-09-06T18:21:17.517Z,101875.31
2023-09-06T18:23:45.987Z,101879.44
2023-09-06T18:26:13.538Z,101879.22
2023-09-06T18:28:41.093Z,101873.44
2023-09-06T18:31:08.818Z,101881.25
2023-09-06T18:33:35.644Z,101877.56
2023-09-06T18:36:02.313Z,101882.44
2023-09-06T18:38:29.382Z,101887.44
2023-09-06T18:40:59.603Z,101892.75
2023-09-06T18:43:26.420Z,101886.03
2023-09-06T18:45:53.143Z,101890.81
2023-09-06T18:48:23.325Z,101889.66
2023-09-06T18:50:51.131Z,101896.19
2023-09-06T18:53:18.005Z,101907.56
2023-09-06T18:55:48.387Z,101908.13
2023-09-06T18:58:18.385Z,101912.28
2023-09-06T19:00:45.328Z,101907.63
2023-09-06T19:03:15.069Z,101910.09
2023-09-06T19:05:43.297Z,101914.84
2023-09-06T19:08:15.710Z,101912.56
2023-09-06T19:10:43.432Z,101915.81
2023-09-06T19:13:11.555Z,101918.66
2023-09-06T19:15:39.530Z,101915.47
2023-09-06T19:18:07.572Z,101922.19
2023-09-06T19:20:37.276Z,101918.22
2023-09-06T19:23:07.634Z,101930.88
2023-09-06T19:25:38.194Z,101925.34
2023-09-06T19:28:08.046Z,101920.66
2023-09-06T19:30:34.829Z,101924.19
2023-09-06T19:33:01.588Z,101928.16
2023-09-06T19:35:28.219Z,101934.84
2023-09-06T19:37:54.865Z,101932.59
2023-09-06T19:40:22.462Z,101933.84
2023-09-06T19:42:52.695Z,101933.84
2023-09-06T19:45:19.371Z,101921.59
2023-09-06T19:47:47.593Z,101924.75
2023-09-06T19:50:14.319Z,101927.97
2023-09-06T19:52:40.846Z,101924.47
2023-09-06T19:55:07.994Z,101922.53
2023-09-06T19:57:34.974Z,101926.16
2023-09-06T20:00:02.236Z,101935.00
2023-09-06T20:02:29.022Z,101928.34
2023-09-06T20:04:55.812Z,101934.78
2023-09-06T20:07:22.430Z,101930.88
2023-09-06T20:09:48.993Z,101926.09
2023-09-06T20:12:15.524Z,101921.75
2023-09-06T20:14:42.067Z,101923.72
2023-09-06T20:17:08.701Z,101928.47
2023-09-06T20:19:35.241Z,101922.13
2023-09-06T20:22:01.891Z,101926.09
2023-09-06T20:24:28.454Z,101931.63
2023-09-06T20:26:55.114Z,101926.88
2023-09-06T20:29:27.127Z,101933.25
2023-09-06T20:31:53.750Z,101929.38
2023-09-06T20:34:20.306Z,101931.81
2023-09-06T20:36:47.389Z,101931.03
2023-09-06T20:39:13.990Z,101930.22
2023-09-06T20:41:42.308Z,101933.81
2023-09-06T20:44:08.950Z,101930.63
2023-09-06T20:46:35.588Z,101932.59
2023-09-06T20:49:02.309Z,101943.66
2023-09-06T20:51:28.850Z,101936.50
2023-09-06T20:53:55.447Z,101938.09
2023-09-06T20:56:21.983Z,101935.69
2023-09-06T20:58:48.553Z,101938.81
2023-09-06T21:01:19.432Z,101936.38
2023-09-06T21:03:47.036Z,101935.16
2023-09-06T21:06:13.665Z,101929.63
2023-09-06T21:08:40.622Z,101935.94
2023-09-06T21:11:07.222Z,101942.63
2023-09-06T21:13:36.649Z,101948.94
2023-09-06T21:16:03.369Z,101944.94
2023-09-06T21:18:30.894Z,101955.25
2023-09-06T21:20:58.039Z,101948.09
2023-09-06T21:23:24.714Z,101950.84
2023-09-06T21:25:51.471Z,101946.88
2023-09-06T21:28:18.093Z,101956.38
2023-09-06T21:30:47.136Z,101957.94
2023-09-06T21:33:14.818Z,101955.13
2023-09-06T21:35:43.091Z,101951.97
2023-09-06T21:38:10.381Z,101951.56
2023-09-06T21:40:45.350Z,101949.19
2023-09-06T21:43:17.678Z,101955.13
2023-09-06T21:45:45.418Z,101960.66
2023-09-06T21:48:12.549Z,101953.94
2023-09-06T21:50:41.392Z,101961.03
2023-09-06T21:53:08.389Z,101962.66
2023-09-06T21:55:35.229Z,101959.09
2023-09-06T21:58:09.800Z,101961.50
2023-09-06T22:00:37.643Z,101967.88
2023-09-06T22:03:04.756Z,101955.69
2023-09-06T22:05:31.464Z,101954.16
2023-09-06T22:07:58.063Z,101958.56
2023-09-06T22:10:24.782Z,101955.84
2023-09-06T22:12:51.988Z,101953.13
2023-09-06T22:15:18.937Z,101949.16
2023-09-06T22:17:45.581Z,101946.00
2023-09-06T22:20:12.547Z,101943.66
2023-09-06T22:22:39.406Z,101949.59
2023-09-06T22:25:07.325Z,101950.41
2023-09-06T22:27:34.600Z,101954.72
2023-09-06T22:30:01.727Z,101958.69
2023-09-06T22:32:28.329Z,101964.59
2023-09-06T22:34:55.066Z,101954.31
2023-09-06T22:37:21.740Z,101957.88
2023-09-06T22:39:48.443Z,101960.63
2023-09-06T22:42:15.061Z,101959.06
2023-09-06T22:44:41.818Z,101958.28
2023-09-06T22:47:09.656Z,101960.25
2023-09-06T22:49:38.663Z,101960.63
2023-09-06T22:52:07.743Z,101961.81
2023-09-06T22:54:39.667Z,101958.25
2023-09-06T22:57:07.619Z,101949.94
2023-09-06T22:59:35.020Z,101957.00
2023-09-06T23:02:01.647Z,101954.63
2023-09-06T23:04:28.717Z,101959.31
2023-09-06T23:06:55.745Z,101958.13
2023-09-06T23:09:22.442Z,101959.28
2023-09-06T23:11:56.907Z,101962.06
2023-09-06T23:14:24.851Z,101963.22
2023-09-06T23:16:52.196Z,101957.28
2023-09-06T23:19:28.796Z,101960.44
2023-09-06T23:21:59.774Z,101956.06
2023-09-06T23:24:28.861Z,101958.03
2023-09-06T23:27:00.337Z,101952.97
2023-09-06T23:29:35.842Z,101950.94
2023-09-06T23:32:06.022Z,101952.91
2023-09-06T23:34:35.365Z,101951.69
2023-09-06T23:37:05.289Z,101941.38
2023-09-06T23:39:34.366Z,101949.59
2023-09-06T23:42:10.846Z,101947.16
2023-09-06T23:44:43.287Z,101941.22
2023-09-06T23:47:10.581Z,101939.97
2023-09-06T23:49:38.188Z,101927.38
2023-09-06T23:52:05.718Z,101942.03
2023-09-06T23:54:44.739Z,101937.72
2023-09-06T23:57:14.235Z,101942.41
2023-09-06T23:59:40.812Z,101943.16
